x

Smith Island, Wa (sisw1) Weather Station

10:00 - Fri 9th Dec 2016 All times are PST. -8 hours from GMT.

  • Wind
    21mph, 25mph gusts
  • Air Temp 39°f
  • Sea Pressure 1008mb
  • Smith Island, Wa
  • Smith Island, Wa

More Historic Weather Station data

Upgrade to MSW Pro to gain access to the past 30 days of data for over 8000 Wavebouys and Weather Stations around the globe.

Join Pro

Comparision Forecast

View Surf forecast
   
ven. 12/09 10:00 21 25 mph 1008mb 39f
9:00 29 33 mph 1008mb 41f
8:00 25 29 mph 1008.5mb 39f
7:00 29 32 mph 1008.2mb 39f
6:00 24 28 mph 1009.2mb 39f
5:00 26 31 mph 1010.5mb 38f
4:00 22 26 mph 1011.7mb 38f
3:00 24 29 mph 1012.2mb 38f
2:00 24 29 mph 1012.2mb 37f
1:00 25 28 mph 1012.9mb 37f
12:00 23 26 mph 1013.5mb 37f
11:00 21 23 mph 1013.8mb 37f
10:00 21 23 mph 1014.4mb 37f
9:00 20 22 mph 1014.3mb 37f
8:00 23 28 mph 1013.9mb 36f
7:00 20 22 mph 1014mb 36f
6:00 20 23 mph 1014.4mb 35f
5:00 22 25 mph 1014mb 36f
4:00 20 24 mph 1014.5mb 34f
3:00 21 24 mph 1014.7mb 34f
2:00 18 21 mph 1014.7mb 33f
1:00 22 25 mph 1014.5mb 33f
12:00 20 22 mph 1014.8mb 32f
jeu. 12/08 11:00 21 23 mph 1014.6mb 32f
10:00 23 26 mph 1014.1mb 38f
9:00 16 18 mph 1014.1mb 37f
8:00 18 21 mph 1013.7mb 37f
7:00 21 22 mph 1014mb 37f
6:00 18 22 mph 1014.4mb 37f
5:00 18 22 mph 1014.8mb 37f
4:00 21 24 mph 1014.7mb 36f
3:00 22 24 mph 1015.5mb 37f
2:00 23 28 mph 1016mb 37f
1:00 17 22 mph 1017.5mb 36f
12:00 22 25 mph 1018.1mb 35f
11:00 20 22 mph 1019.4mb 35f
10:00 22 25 mph 1020mb 35f
9:00 24 26 mph 1020.5mb 33f
8:00 20 25 mph 1021.1mb 33f
7:00 24 28 mph 1021.4mb 33f
6:00 24 28 mph 1022.4mb 32f
5:00 18 22 mph 1023mb 32f
4:00 17 21 mph 1024mb 31f
3:00 21 24 mph 1024.5mb 32f
2:00 21 25 mph 1025.2mb 32f
1:00 21 23 mph 1026mb 31f
12:00 23 25 mph 1026.4mb 32f
mer. 12/07 11:00 18 21 mph 1027.1mb 32f
10:00 15 17 mph 1027.7mb 32f
9:00 21 23 mph 1027.8mb 32f
8:00 16 20 mph 1028.1mb 33f
7:00 18 21 mph 1028.7mb 34f
6:00 15 17 mph 1028.8mb 34f
5:00 16 18 mph 1029.4mb 34f
4:00 14 18 mph 1029.9mb 34f
3:00 11 14 mph 1030.3mb 35f
2:00 10 14 mph 1030.6mb 34f
1:00 10 11 mph 1031mb 34f
12:00 10 13 mph 1031.3mb 34f
11:00 17 21 mph 1031.3mb 33f
10:00 15 18 mph 1031.6mb 32f
9:00 16 18 mph 1031.4mb 31f
8:00 15 16 mph 1031.2mb 30f
7:00 8 10 mph 1031.2mb 30f
6:00 10 14 mph 1031.1mb 30f
5:00 10 14 mph 1031mb 30f
4:00 20 23 mph 1030.6mb 31f
3:00 28 30 mph 1030mb 31f
2:00 29 31 mph 1029.7mb 31f
1:00 25 28 mph 1029.5mb 31f
12:00 23 26 mph 1029.1mb 32f
mar. 12/06 11:00 26 29 mph 1028.5mb 33f
10:00 24 26 mph 1027.8mb 34f
9:00 22 23 mph 1027.2mb 34f
8:00 18 21 mph 1026.6mb 35f
7:00 20 21 mph 1026.3mb 35f
6:00 20 23 mph 1026mb 36f
4:00 17 20 mph 1025mb 36f
3:00 21 24 mph 1024.2mb 37f
2:00 17 20 mph 1023.5mb 37f
1:00 18 21 mph 1023mb 37f
12:00 14 16 mph 1022.7mb 37f
11:00 15 17 mph 1022.4mb 37f
10:00 13 16 mph 1021.9mb 37f
9:00 20 22 mph 1021mb 36f
8:00 20 23 mph 1020.3mb 36f